Elk City, OK (73644)

7:23 PM CDT on March 30, 2015 (GMT -0500)
Clinton-Sherman | | Change Station
CLOSE
Current Station
Airport
Location: Clinton-Sherman,
Elevation: 1923 ft
Nearby Weather Stations

Elev 1923 ft 35.34 °N, 99.20 °W | Updated 30 minutes ago

Clear
Clear
71 °F
Feels Like 71 °F
N
9
Wind Variable Wind from South

Today
High -- | Low -- °F
--% Chance of Precip.
Yesterday
High -- | Low -- °F
Precip. -- in
7:27 AM 7:57 PM
Waxing Gibbous, 83% visible
Pressure 30.00 in
Visibility 10.0 miles
Clouds Clear
Dew Point 45 °F
Humidity 39%
Rainfall 0.00 in
Snow Depth Not available.
UV 1 out of 12
Pollen 11.80 out of 12
Air Quality Not available.
Flu Activity Not available.
METAR KCSM 302353Z 19008KT 10SM CLR 22/07 A3002 RMK AO2 SLP159 T02170072 10250 20211 55018

More Conditions Fewer Conditions

Pressure 30.00 in
Visibility 10.0 miles
Clouds Clear
Dew Point 45 °F
Humidity 39%
Rainfall 0.00 in
Snow Depth Not available.
UV 1 out of 12
Pollen 11.80 out of 12
Air Quality Not available.
Flu Activity Not available.
METAR KCSM 302353Z 19008KT 10SM CLR 22/07 A3002 RMK AO2 SLP159 T02170072 10250 20211 55018

More Conditions Fewer Conditions

10-Day Weather Forecast

Almanac

Astronomy

Mar. 30, 2015 Rise Set
Actual Time
Civil Twilight
Nautical Twilight
Astronomical Twilight
Moon
Length of Visible Light
Length of Day
Tomorrow will be .
, % of the Moon is Illuminated

Today's Extremes

State Highs State Lows

Community

WunderPhotos

Upload Photos

1,809,622 photos uploaded!

WunderBlogs® & News

Nearby

Air Quality

  Air Quality AQ Index Pollutant
Not available.

Snow Depth

Station Depth Elevation

Earthquake Activity

City Distance Mag. Time & Date
Minimum magnitude displayed is 2.5.

Coastal Water Temperatures

Place Temperature

Stations

Nearby Weather Stations

Station Location Temp. Windchill Dew Point Humidity Wind Precip. Elev Updated Type